sensor_id;sensor_type;location;lat;lon;timestamp;temperature;humidity
11136;DHT22;5622;50.840;4.948;2024-03-02T00:00:50;7.50;99.90
11136;DHT22;5622;50.840;4.948;2024-03-02T00:03:20;7.50;99.90
11136;DHT22;5622;50.840;4.948;2024-03-02T00:05:51;7.50;99.90
11136;DHT22;5622;50.840;4.948;2024-03-02T00:08:23;7.50;99.90
11136;DHT22;5622;50.840;4.948;2024-03-02T00:10:57;7.50;99.90
11136;DHT22;5622;50.840;4.948;2024-03-02T00:13:27;7.50;99.90
11136;DHT22;5622;50.840;4.948;2024-03-02T00:15:55;7.20;99.90
11136;DHT22;5622;50.840;4.948;2024-03-02T00:18:26;7.50;99.90
11136;DHT22;5622;50.840;4.948;2024-03-02T00:20:54;7.40;99.90
11136;DHT22;5622;50.840;4.948;2024-03-02T00:23:22;7.50;99.90
11136;DHT22;5622;50.840;4.948;2024-03-02T00:25:51;7.50;99.90
11136;DHT22;5622;50.840;4.948;2024-03-02T00:28:21;7.50;99.90
11136;DHT22;5622;50.840;4.948;2024-03-02T00:30:56;7.50;99.90
11136;DHT22;5622;50.840;4.948;2024-03-02T00:33:26;7.50;99.90
11136;DHT22;5622;50.840;4.948;2024-03-02T00:35:54;7.50;99.90
11136;DHT22;5622;50.840;4.948;2024-03-02T00:38:22;7.50;99.90
11136;DHT22;5622;50.840;4.948;2024-03-02T00:40:49;7.50;99.90
11136;DHT22;5622;50.840;4.948;2024-03-02T00:43:39;7.50;99.90
11136;DHT22;5622;50.840;4.948;2024-03-02T00:46:10;7.40;99.90
11136;DHT22;5622;50.840;4.948;2024-03-02T00:48:40;7.50;99.90
11136;DHT22;5622;50.840;4.948;2024-03-02T00:51:11;7.50;99.90
11136;DHT22;5622;50.840;4.948;2024-03-02T00:53:38;7.50;99.90
11136;DHT22;5622;50.840;4.948;2024-03-02T00:56:09;7.00;99.90
11136;DHT22;5622;50.840;4.948;2024-03-02T00:58:37;7.60;99.90
11136;DHT22;5622;50.840;4.948;2024-03-02T01:01:04;7.50;99.90
11136;DHT22;5622;50.840;4.948;2024-03-02T01:03:34;7.60;99.90
11136;DHT22;5622;50.840;4.948;2024-03-02T01:06:03;7.50;99.90
11136;DHT22;5622;50.840;4.948;2024-03-02T01:08:31;7.50;99.90
11136;DHT22;5622;50.840;4.948;2024-03-02T01:10:58;7.50;99.90
11136;DHT22;5622;50.840;4.948;2024-03-02T01:13:25;7.40;99.90
11136;DHT22;5622;50.840;4.948;2024-03-02T01:15:52;7.50;99.90
11136;DHT22;5622;50.840;4.948;2024-03-02T01:18:20;7.50;99.90
11136;DHT22;5622;50.840;4.948;2024-03-02T01:20:49;7.50;99.90
11136;DHT22;5622;50.840;4.948;2024-03-02T01:23:17;7.50;99.90
11136;DHT22;5622;50.840;4.948;2024-03-02T01:25:45;7.50;99.90
11136;DHT22;5622;50.840;4.948;2024-03-02T01:28:12;6.70;99.90
11136;DHT22;5622;50.840;4.948;2024-03-02T01:30:40;7.40;99.90
11136;DHT22;5622;50.840;4.948;2024-03-02T01:33:07;7.40;99.90
11136;DHT22;5622;50.840;4.948;2024-03-02T01:35:35;7.30;99.90
11136;DHT22;5622;50.840;4.948;2024-03-02T01:38:04;7.30;99.90
11136;DHT22;5622;50.840;4.948;2024-03-02T01:40:33;7.30;99.90
11136;DHT22;5622;50.840;4.948;2024-03-02T01:43:01;7.30;99.90
11136;DHT22;5622;50.840;4.948;2024-03-02T01:45:28;7.30;99.90
11136;DHT22;5622;50.840;4.948;2024-03-02T01:47:56;7.20;99.90
11136;DHT22;5622;50.840;4.948;2024-03-02T01:50:27;7.20;99.90
11136;DHT22;5622;50.840;4.948;2024-03-02T01:52:54;7.30;99.90
11136;DHT22;5622;50.840;4.948;2024-03-02T01:55:23;7.20;99.90
11136;DHT22;5622;50.840;4.948;2024-03-02T01:57:52;7.20;99.90
11136;DHT22;5622;50.840;4.948;2024-03-02T02:00:21;7.30;99.90
11136;DHT22;5622;50.840;4.948;2024-03-02T02:02:50;7.30;99.90
11136;DHT22;5622;50.840;4.948;2024-03-02T02:05:18;7.20;99.90
11136;DHT22;5622;50.840;4.948;2024-03-02T02:07:46;7.20;99.90
11136;DHT22;5622;50.840;4.948;2024-03-02T02:10:14;7.20;99.90
11136;DHT22;5622;50.840;4.948;2024-03-02T02:12:42;7.20;99.90
11136;DHT22;5622;50.840;4.948;2024-03-02T02:15:25;7.20;99.90
11136;DHT22;5622;50.840;4.948;2024-03-02T02:17:57;7.20;99.90
11136;DHT22;5622;50.840;4.948;2024-03-02T02:20:24;7.20;99.90
11136;DHT22;5622;50.840;4.948;2024-03-02T02:23:00;7.10;99.90
11136;DHT22;5622;50.840;4.948;2024-03-02T02:25:27;7.10;99.90
11136;DHT22;5622;50.840;4.948;2024-03-02T02:27:55;7.10;99.90
11136;DHT22;5622;50.840;4.948;2024-03-02T02:30:24;7.10;99.90
11136;DHT22;5622;50.840;4.948;2024-03-02T02:32:52;7.10;99.90
11136;DHT22;5622;50.840;4.948;2024-03-02T02:35:19;7.10;99.90
11136;DHT22;5622;50.840;4.948;2024-03-02T02:37:47;7.10;99.90
11136;DHT22;5622;50.840;4.948;2024-03-02T02:40:17;7.00;99.90
11136;DHT22;5622;50.840;4.948;2024-03-02T02:42:45;7.10;99.90
11136;DHT22;5622;50.840;4.948;2024-03-02T02:45:12;7.10;99.90
11136;DHT22;5622;50.840;4.948;2024-03-02T02:47:40;7.00;99.90
11136;DHT22;5622;50.840;4.948;2024-03-02T02:50:11;7.00;99.90
11136;DHT22;5622;50.840;4.948;2024-03-02T02:52:40;7.00;99.90
11136;DHT22;5622;50.840;4.948;2024-03-02T02:55:11;7.00;99.90
11136;DHT22;5622;50.840;4.948;2024-03-02T02:57:41;7.00;99.90
11136;DHT22;5622;50.840;4.948;2024-03-02T03:00:10;7.00;99.90
11136;DHT22;5622;50.840;4.948;2024-03-02T03:02:42;6.90;99.90
11136;DHT22;5622;50.840;4.948;2024-03-02T03:05:10;7.00;99.90
11136;DHT22;5622;50.840;4.948;2024-03-02T03:07:38;7.00;99.90
11136;DHT22;5622;50.840;4.948;2024-03-02T03:10:07;6.90;99.90
11136;DHT22;5622;50.840;4.948;2024-03-02T03:12:33;7.00;99.90
11136;DHT22;5622;50.840;4.948;2024-03-02T03:15:05;6.60;99.90
11136;DHT22;5622;50.840;4.948;2024-03-02T03:17:34;7.00;99.90
11136;DHT22;5622;50.840;4.948;2024-03-02T03:20:01;7.00;99.90
11136;DHT22;5622;50.840;4.948;2024-03-02T03:22:29;7.10;99.90
11136;DHT22;5622;50.840;4.948;2024-03-02T03:24:56;7.10;99.90
11136;DHT22;5622;50.840;4.948;2024-03-02T03:27:24;7.10;99.90
11136;DHT22;5622;50.840;4.948;2024-03-02T03:29:54;7.10;99.90
11136;DHT22;5622;50.840;4.948;2024-03-02T03:32:23;7.10;99.90
11136;DHT22;5622;50.840;4.948;2024-03-02T03:34:50;7.10;99.90
11136;DHT22;5622;50.840;4.948;2024-03-02T03:37:17;7.10;99.90
11136;DHT22;5622;50.840;4.948;2024-03-02T03:39:44;7.10;99.90
11136;DHT22;5622;50.840;4.948;2024-03-02T03:42:12;7.10;99.90
11136;DHT22;5622;50.840;4.948;2024-03-02T03:44:40;7.10;99.90
11136;DHT22;5622;50.840;4.948;2024-03-02T03:47:07;7.00;99.90
11136;DHT22;5622;50.840;4.948;2024-03-02T03:49:36;7.00;99.90
11136;DHT22;5622;50.840;4.948;2024-03-02T03:52:04;6.90;99.90
11136;DHT22;5622;50.840;4.948;2024-03-02T03:54:31;6.90;99.90
11136;DHT22;5622;50.840;4.948;2024-03-02T03:56:58;6.90;99.90
11136;DHT22;5622;50.840;4.948;2024-03-02T03:59:25;6.90;99.90
11136;DHT22;5622;50.840;4.948;2024-03-02T04:01:54;6.90;99.90
11136;DHT22;5622;50.840;4.948;2024-03-02T04:04:21;6.80;99.90
11136;DHT22;5622;50.840;4.948;2024-03-02T04:06:50;6.80;99.90
11136;DHT22;5622;50.840;4.948;2024-03-02T04:09:17;6.90;99.90
11136;DHT22;5622;50.840;4.948;2024-03-02T04:11:44;6.90;99.90
11136;DHT22;5622;50.840;4.948;2024-03-02T04:14:11;6.90;99.90
11136;DHT22;5622;50.840;4.948;2024-03-02T04:16:39;6.90;99.90
11136;DHT22;5622;50.840;4.948;2024-03-02T04:19:09;7.00;99.90
11136;DHT22;5622;50.840;4.948;2024-03-02T04:21:36;7.00;99.90
11136;DHT22;5622;50.840;4.948;2024-03-02T04:24:05;7.00;99.90
11136;DHT22;5622;50.840;4.948;2024-03-02T04:26:33;7.00;99.90
11136;DHT22;5622;50.840;4.948;2024-03-02T04:29:00;7.00;99.90
11136;DHT22;5622;50.840;4.948;2024-03-02T04:31:27;7.00;99.90
11136;DHT22;5622;50.840;4.948;2024-03-02T04:33:54;6.90;99.90
11136;DHT22;5622;50.840;4.948;2024-03-02T04:36:24;7.00;99.90
11136;DHT22;5622;50.840;4.948;2024-03-02T04:38:52;6.90;99.90
11136;DHT22;5622;50.840;4.948;2024-03-02T04:41:21;6.90;99.90
11136;DHT22;5622;50.840;4.948;2024-03-02T04:43:48;6.90;99.90
11136;DHT22;5622;50.840;4.948;2024-03-02T04:46:15;6.90;99.90
11136;DHT22;5622;50.840;4.948;2024-03-02T04:48:42;6.90;99.90
11136;DHT22;5622;50.840;4.948;2024-03-02T04:51:11;6.80;99.90
11136;DHT22;5622;50.840;4.948;2024-03-02T04:53:42;6.80;99.90
11136;DHT22;5622;50.840;4.948;2024-03-02T04:56:09;6.80;99.90
11136;DHT22;5622;50.840;4.948;2024-03-02T04:58:57;6.80;99.90
11136;DHT22;5622;50.840;4.948;2024-03-02T05:01:24;6.70;99.90
11136;DHT22;5622;50.840;4.948;2024-03-02T05:03:51;6.70;99.90
11136;DHT22;5622;50.840;4.948;2024-03-02T05:06:20;6.70;99.90
11136;DHT22;5622;50.840;4.948;2024-03-02T05:08:48;6.60;99.90
11136;DHT22;5622;50.840;4.948;2024-03-02T05:11:15;6.60;99.90
11136;DHT22;5622;50.840;4.948;2024-03-02T05:14:01;6.60;99.90
11136;DHT22;5622;50.840;4.948;2024-03-02T05:16:28;6.50;99.90
11136;DHT22;5622;50.840;4.948;2024-03-02T05:18:55;6.50;99.90
11136;DHT22;5622;50.840;4.948;2024-03-02T05:21:22;6.40;99.90
11136;DHT22;5622;50.840;4.948;2024-03-02T05:23:50;6.40;99.90
11136;DHT22;5622;50.840;4.948;2024-03-02T05:26:17;6.40;99.90
11136;DHT22;5622;50.840;4.948;2024-03-02T05:28:44;6.40;99.90
11136;DHT22;5622;50.840;4.948;2024-03-02T05:31:15;6.40;99.90
11136;DHT22;5622;50.840;4.948;2024-03-02T05:33:42;6.40;99.90
11136;DHT22;5622;50.840;4.948;2024-03-02T05:36:09;6.40;99.90
11136;DHT22;5622;50.840;4.948;2024-03-02T05:38:39;6.40;99.90
11136;DHT22;5622;50.840;4.948;2024-03-02T05:41:06;6.30;99.90
11136;DHT22;5622;50.840;4.948;2024-03-02T05:43:33;6.40;99.90
11136;DHT22;5622;50.840;4.948;2024-03-02T05:46:01;6.30;99.90
11136;DHT22;5622;50.840;4.948;2024-03-02T05:48:29;6.30;99.90
11136;DHT22;5622;50.840;4.948;2024-03-02T05:50:56;6.20;99.90
11136;DHT22;5622;50.840;4.948;2024-03-02T05:53:23;6.20;99.90
11136;DHT22;5622;50.840;4.948;2024-03-02T05:55:50;6.10;99.90
11136;DHT22;5622;50.840;4.948;2024-03-02T05:58:21;6.20;99.90
11136;DHT22;5622;50.840;4.948;2024-03-02T06:00:58;6.10;99.90
11136;DHT22;5622;50.840;4.948;2024-03-02T06:03:25;6.10;99.90
11136;DHT22;5622;50.840;4.948;2024-03-02T06:05:56;6.10;99.90
11136;DHT22;5622;50.840;4.948;2024-03-02T06:08:23;6.10;99.90
11136;DHT22;5622;50.840;4.948;2024-03-02T06:10:51;6.10;99.90
11136;DHT22;5622;50.840;4.948;2024-03-02T06:13:18;5.60;99.90
11136;DHT22;5622;50.840;4.948;2024-03-02T06:15:45;6.00;99.90
11136;DHT22;5622;50.840;4.948;2024-03-02T06:18:12;5.90;99.90
11136;DHT22;5622;50.840;4.948;2024-03-02T06:20:39;5.90;99.90
11136;DHT22;5622;50.840;4.948;2024-03-02T06:23:08;5.80;99.90
11136;DHT22;5622;50.840;4.948;2024-03-02T06:25:35;5.80;99.90
11136;DHT22;5622;50.840;4.948;2024-03-02T06:28:02;5.80;99.90
11136;DHT22;5622;50.840;4.948;2024-03-02T06:30:30;5.80;99.90
11136;DHT22;5622;50.840;4.948;2024-03-02T06:32:57;5.80;99.90
11136;DHT22;5622;50.840;4.948;2024-03-02T06:35:24;5.80;99.90
11136;DHT22;5622;50.840;4.948;2024-03-02T06:37:51;5.80;99.90
11136;DHT22;5622;50.840;4.948;2024-03-02T06:40:23;6.50;99.90
11136;DHT22;5622;50.840;4.948;2024-03-02T06:42:50;5.30;99.90
11136;DHT22;5622;50.840;4.948;2024-03-02T06:45:17;5.90;99.90
11136;DHT22;5622;50.840;4.948;2024-03-02T06:47:46;5.90;99.90
11136;DHT22;5622;50.840;4.948;2024-03-02T06:50:13;5.90;99.90
11136;DHT22;5622;50.840;4.948;2024-03-02T06:52:41;6.00;99.90
11136;DHT22;5622;50.840;4.948;2024-03-02T06:55:09;6.10;99.90
11136;DHT22;5622;50.840;4.948;2024-03-02T06:57:37;6.00;99.90
11136;DHT22;5622;50.840;4.948;2024-03-02T07:00:08;6.10;99.90
11136;DHT22;5622;50.840;4.948;2024-03-02T07:02:35;6.10;99.90
11136;DHT22;5622;50.840;4.948;2024-03-02T07:05:03;6.10;99.90
11136;DHT22;5622;50.840;4.948;2024-03-02T07:07:32;6.10;99.90
11136;DHT22;5622;50.840;4.948;2024-03-02T07:10:00;6.10;99.90
11136;DHT22;5622;50.840;4.948;2024-03-02T07:12:27;6.20;99.90
11136;DHT22;5622;50.840;4.948;2024-03-02T07:14:56;6.10;99.90
11136;DHT22;5622;50.840;4.948;2024-03-02T07:17:50;6.10;99.90
11136;DHT22;5622;50.840;4.948;2024-03-02T07:20:18;6.20;99.90
11136;DHT22;5622;50.840;4.948;2024-03-02T07:22:45;6.10;99.90
11136;DHT22;5622;50.840;4.948;2024-03-02T07:25:12;6.10;99.90
11136;DHT22;5622;50.840;4.948;2024-03-02T07:27:40;6.10;99.90
11136;DHT22;5622;50.840;4.948;2024-03-02T07:30:12;7.20;99.90
11136;DHT22;5622;50.840;4.948;2024-03-02T07:32:41;6.20;99.90
11136;DHT22;5622;50.840;4.948;2024-03-02T07:35:12;6.20;99.90
11136;DHT22;5622;50.840;4.948;2024-03-02T07:37:40;6.30;99.90
11136;DHT22;5622;50.840;4.948;2024-03-02T07:40:09;6.40;99.90
11136;DHT22;5622;50.840;4.948;2024-03-02T07:42:37;6.50;99.90
11136;DHT22;5622;50.840;4.948;2024-03-02T07:45:06;6.50;99.90
11136;DHT22;5622;50.840;4.948;2024-03-02T07:47:37;6.60;99.90
11136;DHT22;5622;50.840;4.948;2024-03-02T07:50:07;6.70;99.90
11136;DHT22;5622;50.840;4.948;2024-03-02T07:52:34;6.80;99.90
11136;DHT22;5622;50.840;4.948;2024-03-02T07:55:02;6.80;99.90
11136;DHT22;5622;50.840;4.948;2024-03-02T07:57:29;6.90;99.90
11136;DHT22;5622;50.840;4.948;2024-03-02T07:59:58;7.10;99.90
11136;DHT22;5622;50.840;4.948;2024-03-02T08:02:26;7.10;99.90
11136;DHT22;5622;50.840;4.948;2024-03-02T08:04:56;7.30;99.90
11136;DHT22;5622;50.840;4.948;2024-03-02T08:07:23;7.30;99.90
11136;DHT22;5622;50.840;4.948;2024-03-02T08:09:50;7.50;99.90
11136;DHT22;5622;50.840;4.948;2024-03-02T08:12:18;7.70;99.90
11136;DHT22;5622;50.840;4.948;2024-03-02T08:14:45;7.80;99.90
11136;DHT22;5622;50.840;4.948;2024-03-02T08:17:12;8.10;99.90
11136;DHT22;5622;50.840;4.948;2024-03-02T08:19:39;8.40;99.90
11136;DHT22;5622;50.840;4.948;2024-03-02T08:22:08;8.60;99.90
11136;DHT22;5622;50.840;4.948;2024-03-02T08:24:36;8.90;99.90
11136;DHT22;5622;50.840;4.948;2024-03-02T08:27:03;9.10;99.90
11136;DHT22;5622;50.840;4.948;2024-03-02T08:29:31;9.20;99.90
11136;DHT22;5622;50.840;4.948;2024-03-02T08:31:58;9.30;99.90
11136;DHT22;5622;50.840;4.948;2024-03-02T08:34:30;9.40;99.90
11136;DHT22;5622;50.840;4.948;2024-03-02T08:37:02;9.50;99.90
11136;DHT22;5622;50.840;4.948;2024-03-02T08:39:31;9.50;99.90
11136;DHT22;5622;50.840;4.948;2024-03-02T08:41:58;9.60;99.90
11136;DHT22;5622;50.840;4.948;2024-03-02T08:44:26;9.60;99.90
11136;DHT22;5622;50.840;4.948;2024-03-02T08:46:53;9.50;99.90
11136;DHT22;5622;50.840;4.948;2024-03-02T08:49:20;9.70;99.90
11136;DHT22;5622;50.840;4.948;2024-03-02T08:51:47;9.70;99.90
11136;DHT22;5622;50.840;4.948;2024-03-02T08:54:20;9.70;99.90
11136;DHT22;5622;50.840;4.948;2024-03-02T08:56:49;9.90;99.90
11136;DHT22;5622;50.840;4.948;2024-03-02T08:59:16;9.90;99.90
11136;DHT22;5622;50.840;4.948;2024-03-02T09:01:43;10.00;99.90
11136;DHT22;5622;50.840;4.948;2024-03-02T09:04:10;10.10;99.90
11136;DHT22;5622;50.840;4.948;2024-03-02T09:06:38;10.20;99.90
11136;DHT22;5622;50.840;4.948;2024-03-02T09:09:06;10.30;99.90
11136;DHT22;5622;50.840;4.948;2024-03-02T09:11:33;10.30;99.90
11136;DHT22;5622;50.840;4.948;2024-03-02T09:14:02;10.30;99.90
11136;DHT22;5622;50.840;4.948;2024-03-02T09:16:30;10.40;99.90
11136;DHT22;5622;50.840;4.948;2024-03-02T09:18:58;10.30;99.90
11136;DHT22;5622;50.840;4.948;2024-03-02T09:21:25;10.20;99.90
11136;DHT22;5622;50.840;4.948;2024-03-02T09:23:52;10.20;99.90
11136;DHT22;5622;50.840;4.948;2024-03-02T09:26:19;10.20;99.90
11136;DHT22;5622;50.840;4.948;2024-03-02T09:28:47;10.10;99.90
11136;DHT22;5622;50.840;4.948;2024-03-02T09:31:15;10.00;99.90
11136;DHT22;5622;50.840;4.948;2024-03-02T09:33:42;9.80;99.90
11136;DHT22;5622;50.840;4.948;2024-03-02T09:36:17;9.80;99.90
11136;DHT22;5622;50.840;4.948;2024-03-02T09:38:44;9.60;99.90
11136;DHT22;5622;50.840;4.948;2024-03-02T09:41:12;9.50;99.90
11136;DHT22;5622;50.840;4.948;2024-03-02T09:43:40;9.50;99.90
11136;DHT22;5622;50.840;4.948;2024-03-02T09:46:09;9.60;99.90
11136;DHT22;5622;50.840;4.948;2024-03-02T09:48:38;9.60;99.90
11136;DHT22;5622;50.840;4.948;2024-03-02T09:51:05;9.70;99.90
11136;DHT22;5622;50.840;4.948;2024-03-02T09:53:33;9.70;99.90
11136;DHT22;5622;50.840;4.948;2024-03-02T09:56:01;9.90;99.90
11136;DHT22;5622;50.840;4.948;2024-03-02T09:58:28;10.00;99.90
11136;DHT22;5622;50.840;4.948;2024-03-02T10:00:55;10.10;99.90
11136;DHT22;5622;50.840;4.948;2024-03-02T10:03:23;10.10;99.90
11136;DHT22;5622;50.840;4.948;2024-03-02T10:05:51;10.20;99.90
11136;DHT22;5622;50.840;4.948;2024-03-02T10:08:18;10.20;99.90
11136;DHT22;5622;50.840;4.948;2024-03-02T10:10:45;10.30;99.90
11136;DHT22;5622;50.840;4.948;2024-03-02T10:13:14;10.30;99.90
11136;DHT22;5622;50.840;4.948;2024-03-02T10:15:42;10.30;99.90
11136;DHT22;5622;50.840;4.948;2024-03-02T10:18:09;10.30;99.90
11136;DHT22;5622;50.840;4.948;2024-03-02T10:20:38;10.30;99.90
11136;DHT22;5622;50.840;4.948;2024-03-02T10:23:14;10.40;99.90
11136;DHT22;5622;50.840;4.948;2024-03-02T10:25:42;10.50;99.90
11136;DHT22;5622;50.840;4.948;2024-03-02T10:28:10;10.50;99.90
11136;DHT22;5622;50.840;4.948;2024-03-02T10:30:37;10.60;99.90
11136;DHT22;5622;50.840;4.948;2024-03-02T10:33:06;10.70;99.90
11136;DHT22;5622;50.840;4.948;2024-03-02T10:35:33;10.90;99.90
11136;DHT22;5622;50.840;4.948;2024-03-02T10:38:04;11.10;99.90
11136;DHT22;5622;50.840;4.948;2024-03-02T10:40:33;11.40;99.90
11136;DHT22;5622;50.840;4.948;2024-03-02T10:43:01;11.60;99.90
11136;DHT22;5622;50.840;4.948;2024-03-02T10:45:29;11.90;99.90
11136;DHT22;5622;50.840;4.948;2024-03-02T10:47:57;12.10;99.90
11136;DHT22;5622;50.840;4.948;2024-03-02T10:50:24;12.30;99.90
11136;DHT22;5622;50.840;4.948;2024-03-02T10:52:52;12.50;99.90
11136;DHT22;5622;50.840;4.948;2024-03-02T10:55:19;12.50;99.90
11136;DHT22;5622;50.840;4.948;2024-03-02T10:57:51;12.60;99.90
11136;DHT22;5622;50.840;4.948;2024-03-02T11:00:19;12.80;99.90
11136;DHT22;5622;50.840;4.948;2024-03-02T11:02:51;12.80;99.90
11136;DHT22;5622;50.840;4.948;2024-03-02T11:05:26;12.90;99.90
11136;DHT22;5622;50.840;4.948;2024-03-02T11:07:57;13.00;99.90
11136;DHT22;5622;50.840;4.948;2024-03-02T11:10:33;13.00;99.90
11136;DHT22;5622;50.840;4.948;2024-03-02T11:13:05;12.90;99.90
11136;DHT22;5622;50.840;4.948;2024-03-02T11:15:34;12.90;99.90
11136;DHT22;5622;50.840;4.948;2024-03-02T11:18:04;12.80;99.90
11136;DHT22;5622;50.840;4.948;2024-03-02T11:20:36;12.60;99.90
11136;DHT22;5622;50.840;4.948;2024-03-02T11:23:05;12.50;99.90
11136;DHT22;5622;50.840;4.948;2024-03-02T11:25:33;12.40;99.90
11136;DHT22;5622;50.840;4.948;2024-03-02T11:28:02;12.30;99.90
11136;DHT22;5622;50.840;4.948;2024-03-02T11:30:49;12.20;99.90
11136;DHT22;5622;50.840;4.948;2024-03-02T11:33:25;12.10;99.90
11136;DHT22;5622;50.840;4.948;2024-03-02T11:35:57;12.00;99.90
11136;DHT22;5622;50.840;4.948;2024-03-02T11:38:31;12.00;99.90
11136;DHT22;5622;50.840;4.948;2024-03-02T11:41:00;11.90;99.90
11136;DHT22;5622;50.840;4.948;2024-03-02T11:43:30;11.90;99.90
11136;DHT22;5622;50.840;4.948;2024-03-02T11:45:59;11.90;99.90
11136;DHT22;5622;50.840;4.948;2024-03-02T11:48:29;11.80;99.90
11136;DHT22;5622;50.840;4.948;2024-03-02T11:50:59;11.80;99.90
11136;DHT22;5622;50.840;4.948;2024-03-02T11:53:27;11.80;99.90
11136;DHT22;5622;50.840;4.948;2024-03-02T11:55:56;11.70;99.90
11136;DHT22;5622;50.840;4.948;2024-03-02T11:58:23;11.70;99.90
11136;DHT22;5622;50.840;4.948;2024-03-02T12:00:54;11.70;99.90
11136;DHT22;5622;50.840;4.948;2024-03-02T12:03:22;11.70;99.90
11136;DHT22;5622;50.840;4.948;2024-03-02T12:05:51;11.70;99.90
11136;DHT22;5622;50.840;4.948;2024-03-02T12:08:19;11.70;99.90
11136;DHT22;5622;50.840;4.948;2024-03-02T12:10:58;11.70;99.90
11136;DHT22;5622;50.840;4.948;2024-03-02T12:13:26;11.70;99.90
11136;DHT22;5622;50.840;4.948;2024-03-02T12:15:55;11.70;99.90
11136;DHT22;5622;50.840;4.948;2024-03-02T12:18:22;11.70;99.90
11136;DHT22;5622;50.840;4.948;2024-03-02T12:20:50;11.70;99.90
11136;DHT22;5622;50.840;4.948;2024-03-02T12:23:22;11.70;99.90
11136;DHT22;5622;50.840;4.948;2024-03-02T12:25:49;11.70;99.90
11136;DHT22;5622;50.840;4.948;2024-03-02T12:28:16;11.70;99.90
11136;DHT22;5622;50.840;4.948;2024-03-02T12:30:44;11.80;99.90
11136;DHT22;5622;50.840;4.948;2024-03-02T12:33:14;11.80;99.90
11136;DHT22;5622;50.840;4.948;2024-03-02T12:35:43;11.70;99.90
11136;DHT22;5622;50.840;4.948;2024-03-02T12:38:10;11.80;99.90
11136;DHT22;5622;50.840;4.948;2024-03-02T12:40:37;11.70;99.90
11136;DHT22;5622;50.840;4.948;2024-03-02T12:43:05;11.80;99.90
11136;DHT22;5622;50.840;4.948;2024-03-02T12:45:32;11.80;99.90
11136;DHT22;5622;50.840;4.948;2024-03-02T12:48:00;11.80;99.90
11136;DHT22;5622;50.840;4.948;2024-03-02T12:50:29;11.70;99.90
11136;DHT22;5622;50.840;4.948;2024-03-02T12:52:57;11.70;99.90
11136;DHT22;5622;50.840;4.948;2024-03-02T12:55:24;11.70;99.90
11136;DHT22;5622;50.840;4.948;2024-03-02T12:57:52;11.70;99.90
11136;DHT22;5622;50.840;4.948;2024-03-02T13:00:20;11.60;99.90
11136;DHT22;5622;50.840;4.948;2024-03-02T13:02:47;11.70;99.90
11136;DHT22;5622;50.840;4.948;2024-03-02T13:05:16;11.70;99.90
11136;DHT22;5622;50.840;4.948;2024-03-02T13:07:47;11.70;99.90
11136;DHT22;5622;50.840;4.948;2024-03-02T13:10:14;11.70;99.90
11136;DHT22;5622;50.840;4.948;2024-03-02T13:12:42;11.70;99.90
11136;DHT22;5622;50.840;4.948;2024-03-02T13:15:09;11.70;99.90
11136;DHT22;5622;50.840;4.948;2024-03-02T13:17:36;11.70;99.90
11136;DHT22;5622;50.840;4.948;2024-03-02T13:20:04;11.60;99.90
11136;DHT22;5622;50.840;4.948;2024-03-02T13:22:33;11.70;99.90
11136;DHT22;5622;50.840;4.948;2024-03-02T13:25:02;11.70;99.90
11136;DHT22;5622;50.840;4.948;2024-03-02T13:27:30;11.70;99.90
11136;DHT22;5622;50.840;4.948;2024-03-02T13:29:58;11.70;99.90
11136;DHT22;5622;50.840;4.948;2024-03-02T13:32:26;11.60;99.90
11136;DHT22;5622;50.840;4.948;2024-03-02T13:34:53;11.60;99.90
11136;DHT22;5622;50.840;4.948;2024-03-02T13:37:21;11.60;99.90
11136;DHT22;5622;50.840;4.948;2024-03-02T13:39:48;11.60;99.90
11136;DHT22;5622;50.840;4.948;2024-03-02T13:42:17;11.80;99.90
11136;DHT22;5622;50.840;4.948;2024-03-02T13:44:45;11.80;99.90
11136;DHT22;5622;50.840;4.948;2024-03-02T13:47:13;11.80;99.90
11136;DHT22;5622;50.840;4.948;2024-03-02T13:49:41;11.90;99.90
11136;DHT22;5622;50.840;4.948;2024-03-02T13:52:10;12.00;99.90
11136;DHT22;5622;50.840;4.948;2024-03-02T13:54:39;12.00;99.90
11136;DHT22;5622;50.840;4.948;2024-03-02T13:57:07;12.10;99.90
11136;DHT22;5622;50.840;4.948;2024-03-02T13:59:36;12.10;99.90
11136;DHT22;5622;50.840;4.948;2024-03-02T14:02:03;12.20;99.90
11136;DHT22;5622;50.840;4.948;2024-03-02T14:04:31;12.30;99.90
11136;DHT22;5622;50.840;4.948;2024-03-02T14:06:59;12.30;99.90
11136;DHT22;5622;50.840;4.948;2024-03-02T14:09:26;12.30;99.90
11136;DHT22;5622;50.840;4.948;2024-03-02T14:11:53;12.30;99.90
11136;DHT22;5622;50.840;4.948;2024-03-02T14:14:21;12.40;99.90
11136;DHT22;5622;50.840;4.948;2024-03-02T14:16:49;12.30;99.90
11136;DHT22;5622;50.840;4.948;2024-03-02T14:19:17;12.30;99.90
11136;DHT22;5622;50.840;4.948;2024-03-02T14:21:44;12.40;99.90
11136;DHT22;5622;50.840;4.948;2024-03-02T14:24:11;12.50;99.90
11136;DHT22;5622;50.840;4.948;2024-03-02T14:26:38;12.60;99.90
11136;DHT22;5622;50.840;4.948;2024-03-02T14:29:06;12.60;99.90
11136;DHT22;5622;50.840;4.948;2024-03-02T14:31:33;12.60;99.90
11136;DHT22;5622;50.840;4.948;2024-03-02T14:34:03;12.60;99.90
11136;DHT22;5622;50.840;4.948;2024-03-02T14:36:30;12.60;99.90
11136;DHT22;5622;50.840;4.948;2024-03-02T14:38:57;12.50;99.90
11136;DHT22;5622;50.840;4.948;2024-03-02T14:41:24;12.40;99.90
11136;DHT22;5622;50.840;4.948;2024-03-02T14:43:52;12.40;99.90
11136;DHT22;5622;50.840;4.948;2024-03-02T14:46:19;12.40;99.90
11136;DHT22;5622;50.840;4.948;2024-03-02T14:48:46;12.20;99.90
11136;DHT22;5622;50.840;4.948;2024-03-02T14:51:15;12.20;99.90
11136;DHT22;5622;50.840;4.948;2024-03-02T14:53:44;12.20;99.90
11136;DHT22;5622;50.840;4.948;2024-03-02T14:56:11;12.20;99.90
11136;DHT22;5622;50.840;4.948;2024-03-02T14:58:39;12.20;99.90
11136;DHT22;5622;50.840;4.948;2024-03-02T15:01:06;12.10;99.90
11136;DHT22;5622;50.840;4.948;2024-03-02T15:03:34;12.10;99.90
11136;DHT22;5622;50.840;4.948;2024-03-02T15:06:02;12.10;99.90
11136;DHT22;5622;50.840;4.948;2024-03-02T15:08:31;12.10;99.90
11136;DHT22;5622;50.840;4.948;2024-03-02T15:10:58;12.10;99.90
11136;DHT22;5622;50.840;4.948;2024-03-02T15:13:27;12.00;99.90
11136;DHT22;5622;50.840;4.948;2024-03-02T15:15:54;12.10;99.90
11136;DHT22;5622;50.840;4.948;2024-03-02T15:18:21;12.10;99.90
11136;DHT22;5622;50.840;4.948;2024-03-02T15:20:48;12.10;99.90
11136;DHT22;5622;50.840;4.948;2024-03-02T15:23:18;12.20;99.90
11136;DHT22;5622;50.840;4.948;2024-03-02T15:25:46;12.20;99.90
11136;DHT22;5622;50.840;4.948;2024-03-02T15:28:14;12.20;99.90
11136;DHT22;5622;50.840;4.948;2024-03-02T15:30:41;12.20;99.90
11136;DHT22;5622;50.840;4.948;2024-03-02T15:33:08;12.20;99.90
11136;DHT22;5622;50.840;4.948;2024-03-02T15:35:35;12.20;99.90
11136;DHT22;5622;50.840;4.948;2024-03-02T15:38:02;12.30;99.90
11136;DHT22;5622;50.840;4.948;2024-03-02T15:40:29;12.20;99.90
11136;DHT22;5622;50.840;4.948;2024-03-02T15:42:57;12.20;99.90
11136;DHT22;5622;50.840;4.948;2024-03-02T15:45:24;12.30;99.90
11136;DHT22;5622;50.840;4.948;2024-03-02T15:47:59;12.20;99.90
11136;DHT22;5622;50.840;4.948;2024-03-02T15:50:26;12.10;99.90
11136;DHT22;5622;50.840;4.948;2024-03-02T15:52:53;12.10;99.90
11136;DHT22;5622;50.840;4.948;2024-03-02T15:55:21;12.00;99.90
11136;DHT22;5622;50.840;4.948;2024-03-02T15:57:48;12.00;99.90
11136;DHT22;5622;50.840;4.948;2024-03-02T16:00:18;11.90;99.90
11136;DHT22;5622;50.840;4.948;2024-03-02T16:02:46;12.00;99.90